attphoneunlockingshop.us alexa rank chart, attphoneunlockingshop.us alexa rank daily changes

attphoneunlockingshop.us alexa rank chart, attphoneunlockingshop.us alexa rank daily changes

attphoneunlockingshop.us
Actual rank:
861 940

RANK HISTORY

Date Rank Diff
2016/12/07 861 940 -31 116
2016/12/06 893 056 +72 013
2016/12/05 821 043 -32 297
2016/12/04 853 340 -21 832
2016/12/02 875 172 +63 870
2016/12/01 811 302 +24 548
2016/11/30 786 754 +23 453
2016/11/29 763 301 +33 564
2016/11/28 729 737 +12 568
2016/11/27 717 169 +35 767
2016/11/26 681 402 -7 759
2016/11/25 689 161 +59 066
2016/11/24 630 095 -24 901
2016/11/23 654 996 +80 675
2016/11/19 574 321 -13 475
2016/11/18 587 796 -1 740
2016/11/17 589 536 -1 886
2016/11/16 591 422 +37 782
2016/11/15 553 640 +68 588
2016/11/14 485 052 +48 240
2016/11/13 436 812 +18 384
2016/11/12 418 428 +33 315
2016/11/11 385 113 -1 910
2016/11/10 387 023 +1 891
2016/11/09 385 132 +8 561
2016/11/08 376 571 +16 766
2016/11/07 359 805 +33 385
2016/11/06 326 420 -491
2016/11/05 326 911 +15 749
2016/11/04 311 162 +44 898
2016/11/03 266 264 +4 057
2016/11/02 262 207 +12 485
2016/11/01 249 722 +2 844
2016/10/31 246 878 +8 850
2016/10/30 238 028 +2 137
2016/10/29 235 891 +7 210
2016/10/28 228 681 +11 115
2016/10/27 217 566 +1 474
2016/10/26 216 092 +7 203
2016/10/25 208 889 -1 639
2016/10/24 210 528 +7 236
2016/10/23 203 292 +4 388
2016/10/22 198 904 +2 700
2016/10/21 196 204 +6 796
2016/10/20 189 408 +781
2016/10/19 188 627 +4 723
2016/10/18 183 904 +6 226
2016/10/17 177 678 +1 902
2016/10/16 175 776 -1 271
2016/10/15 177 047 -120 879
2016/10/14 297 926 -767
2016/10/13 298 693 -7 157
2016/10/12 305 850 -10 145
2016/10/11 315 995 -6 317
2016/10/10 322 312 -13 878
2016/10/09 336 190 -1 166
2016/10/08 337 356

WIDGET FOR YOUR SITE

DOMAINS WITH THE NEAREST RANK

Domain Rank
cfigroup.com 861 935
virtualrealityforum.de 861 936
golchintemplate.ir 861 937
consumidor.gov 861 938
my-knx-shop.net 861 939
attphoneunlockingshop.us 861 940
encontrocomcristo.com.br 861 941
indiaboard.com 861 942
needmorerentals.com 861 943
venusdvd.net 861 944
cardinalpeak.com 861 945

DOMAINS WITH THE NEAREST RANK BY TLD .us

Domain Rank
taboosex.us 860 992
miamicompras.us 861 158
subscene.us 861 272
blenderreviews.us 861 287
stylecollective.us 861 803
attphoneunlockingshop.us 861 940
dewafilm.us 862 185
optilink.us 862 200
shanghaixinhu.us 862 440
cssrc.us 862 705
topsole.us 863 917